Wolf Creek Pass, CO

3:37 AM MDT on April 01, 2015 (GMT -0600)
Wolf Creek Pass | | Change Station
CLOSE
Current Station
Airport
Location: Wolf Creek Pass,
Elevation: 11759 ft
Nearby Weather Stations

Elev 11759 ft 37.45 °N, 106.80 °W | Updated 26 minutes ago

Mostly Cloudy
Mostly Cloudy
32 °F
Feels Like 17 °F
N
34
Wind Variable Wind from SW
Gusts 44 mph

Today
High -- | Low -- °F
--% Chance of Precip.
Yesterday
High -- | Low -- °F
Precip. -- in
6:52 AM 7:29 PM
Waxing Gibbous, 91% visible
Pressure 30.19 in
Visibility -9999.0 miles
Clouds Scattered Clouds 3800 ft
Scattered Clouds 4400 ft
Overcast 5000 ft
Windchill 17 °F
Dew Point 19 °F
Humidity 60%
Rainfall 0.00 in
Snow Depth Not available.
UV 0 out of 12
Pollen 10.90 out of 12
Air Quality Not available.
Flu Activity Not available.
METAR KCPW 010911Z AUTO 22030G38KT SCT038 SCT044 OVC050 00/M07 A3019 RMK AO2 PWINO

More Conditions Fewer Conditions

Pressure 30.19 in
Visibility -9999.0 miles
Clouds Scattered Clouds 3800 ft
Scattered Clouds 4400 ft
Overcast 5000 ft
Windchill 17 °F
Dew Point 19 °F
Humidity 60%
Rainfall 0.00 in
Snow Depth Not available.
UV 0 out of 12
Pollen 10.90 out of 12
Air Quality Not available.
Flu Activity Not available.
METAR KCPW 010911Z AUTO 22030G38KT SCT038 SCT044 OVC050 00/M07 A3019 RMK AO2 PWINO

More Conditions Fewer Conditions

10-Day Weather Forecast

Almanac

Astronomy

Apr. 01, 2015 Rise Set
Actual Time
Civil Twilight
Nautical Twilight
Astronomical Twilight
Moon
Length of Visible Light
Length of Day
Tomorrow will be .
, % of the Moon is Illuminated

Today's Extremes

State Highs State Lows

Community

WunderPhotos

Upload Photos

1,809,933 photos uploaded!

WunderBlogs® & News

Nearby

Air Quality

  Air Quality AQ Index Pollutant
Not available.

Snow Depth

Station Depth Elevation

Earthquake Activity

City Distance Mag. Time & Date
Minimum magnitude displayed is 2.5.

Coastal Water Temperatures

Place Temperature

Stations

Nearby Weather Stations

Station Location Temp. Windchill Dew Point Humidity Wind Precip. Elev Updated Type